Time;durP1;ratioP1;P1;durP2;ratioP2;P2;SDS_P1;SDS_P2;PMS_P1;PMS_P2;Temp;Humidity;BMP_temperature;BMP_pressure;BME280_temperature;BME280_humidity;BME280_pressure;Samples;Min_cycle;Max_cycle;Signal;HPM_P1;HPM_P2
2021/10/21 05:11:36;;;;;;;17.58;11.15;;;;;;;12.30;69.23;98545.41;4984776;28;106194;-65
2021/10/21 05:14:01;;;;;;;19.05;10.25;;;;;;;12.34;69.56;98535.91;4983066;28;106004;-66
2021/10/21 05:16:26;;;;;;;13.60;11.07;;;;;;;12.40;69.70;98547.56;4984265;28;106325;-65
2021/10/21 05:18:52;;;;;;;15.20;10.90;;;;;;;12.46;69.64;98563.50;4984159;28;105824;-65
2021/10/21 05:21:17;;;;;;;17.48;11.82;;;;;;;12.55;69.57;98552.53;4983670;28;106470;-65
2021/10/21 05:23:42;;;;;;;12.52;10.57;;;;;;;12.62;69.92;98540.75;4984955;28;105926;-68
2021/10/21 05:26:08;;;;;;;18.15;11.38;;;;;;;12.66;69.42;98549.13;4984549;28;106263;-65
2021/10/21 05:28:33;;;;;;;14.75;10.48;;;;;;;12.74;69.64;98548.81;4984443;28;105940;-66
2021/10/21 05:30:59;;;;;;;12.43;10.73;;;;;;;12.81;69.61;98551.41;4983639;28;106078;-68
2021/10/21 05:33:26;;;;;;;16.98;12.10;;;;;;;12.85;69.27;98552.59;4984112;28;105993;-69
2021/10/21 05:35:51;;;;;;;14.60;10.27;;;;;;;12.88;69.53;98537.97;4983813;28;106223;-65
2021/10/21 05:38:17;;;;;;;10.05;8.55;;;;;;;12.92;69.43;98539.16;4984347;28;105894;-69
2021/10/21 05:40:42;;;;;;;14.02;10.27;;;;;;;12.95;69.44;98526.13;4981398;28;106211;-69
2021/10/21 05:43:08;;;;;;;13.20;9.77;;;;;;;12.99;69.28;98521.97;4978993;28;105849;-68
2021/10/21 05:45:33;;;;;;;14.88;10.18;;;;;;;13.01;69.19;98537.78;4984983;28;106591;-68
2021/10/21 05:47:58;;;;;;;15.43;10.00;;;;;;;13.02;69.27;98537.53;4984132;28;105960;-68
2021/10/21 05:50:24;;;;;;;12.75;10.15;;;;;;;13.05;69.01;98530.94;4983791;28;106477;-69
2021/10/21 05:52:49;;;;;;;22.15;11.18;;;;;;;13.06;69.63;98516.53;4981174;28;105947;-67
2021/10/21 05:55:15;;;;;;;11.57;8.70;;;;;;;13.08;68.84;98509.13;4963290;28;106232;-68
2021/10/21 05:57:40;;;;;;;10.25;7.45;;;;;;;13.11;68.77;98521.19;4962435;28;106325;-70
2021/10/21 06:00:08;;;;;;;13.63;8.50;;;;;;;13.14;68.81;98526.91;4962837;28;106487;-67
2021/10/21 06:02:35;;;;;;;12.63;8.70;;;;;;;13.15;69.16;98515.19;4962977;28;106067;-69
2021/10/21 06:05:00;;;;;;;16.08;10.05;;;;;;;13.17;69.12;98534.47;4962725;28;106381;-67
2021/10/21 06:07:25;;;;;;;16.08;9.95;;;;;;;13.18;68.69;98512.03;4961401;28;105932;-67
2021/10/21 06:09:56;;;;;;;15.15;10.38;;;;;;;13.19;68.65;98521.69;4962075;28;106181;-66
2021/10/21 06:12:22;;;;;;;;;;;;;;;13.19;68.30;98520.88;4962779;28;106300;-66
2021/10/21 06:14:48;;;;;;;11.52;9.20;;;;;;;13.18;68.31;98503.22;4962827;28;106786;-66
2021/10/21 06:17:13;;;;;;;14.45;10.05;;;;;;;13.18;68.18;98501.34;4964636;28;113862;-70
2021/10/21 06:19:39;;;;;;;13.30;9.82;;;;;;;13.19;68.43;98511.00;4963743;28;106083;-66
2021/10/21 06:22:08;;;;;;;10.68;7.50;;;;;;;13.19;68.25;98519.03;4957029;28;105968;-67
2021/10/21 06:24:34;;;;;;;17.40;9.95;;;;;;;13.20;67.69;98525.16;4951428;28;106151;-66
2021/10/21 06:26:59;;;;;;;14.05;11.25;;;;;;;13.18;67.93;98522.72;4951628;28;105759;-64
2021/10/21 06:29:25;;;;;;;15.98;10.93;;;;;;;13.16;67.83;98527.50;4961969;28;105944;-68
2021/10/21 06:31:50;;;;;;;17.17;11.23;;;;;;;13.16;67.78;98532.03;4953045;28;105926;-67
2021/10/21 06:34:16;;;;;;;16.88;11.50;;;;;;;13.14;67.55;98542.94;4950593;28;106173;-67
2021/10/21 06:36:42;;;;;;;12.25;8.45;;;;;;;13.11;67.78;98535.38;4950529;28;105966;-67
2021/10/21 06:39:07;;;;;;;12.02;8.85;;;;;;;13.10;67.68;98539.09;4951271;28;106072;-67
2021/10/21 06:41:32;;;;;;;14.00;10.20;;;;;;;13.07;68.06;98544.91;4951989;28;106509;-67
2021/10/21 06:43:58;;;;;;;22.85;10.45;;;;;;;13.07;67.74;98560.94;4950607;28;106150;-67
2021/10/21 06:46:23;;;;;;;12.82;9.10;;;;;;;13.06;67.87;98567.31;4948732;28;106359;-70
2021/10/21 06:48:49;;;;;;;14.20;10.30;;;;;;;13.04;67.74;98578.25;4956663;28;105996;-70
2021/10/21 06:51:15;;;;;;;14.75;10.35;;;;;;;13.07;67.84;98560.09;4955257;28;106099;-67
2021/10/21 06:53:40;;;;;;;14.40;11.48;;;;;;;13.07;67.85;98547.56;4950592;28;106846;-67
2021/10/21 06:56:06;;;;;;;16.60;12.10;;;;;;;13.07;67.75;98534.22;4952828;28;106071;-67
2021/10/21 06:58:33;;;;;;;16.73;12.48;;;;;;;13.07;67.97;98512.81;4958206;28;106104;-68
2021/10/21 07:00:58;;;;;;;13.32;11.52;;;;;;;13.04;67.81;98489.22;4954521;28;105891;-67
2021/10/21 07:03:24;;;;;;;12.68;9.73;;;;;;;13.03;67.65;98469.69;4949913;28;106228;-68
2021/10/21 07:05:52;;;;;;;17.08;13.43;;;;;;;13.03;67.66;98474.22;4950618;28;105943;-67
2021/10/21 07:08:18;;;;;;;17.08;12.90;;;;;;;13.02;67.85;98475.25;4949896;28;106100;-66
2021/10/21 07:10:44;;;;;;;16.63;11.77;;;;;;;13.02;68.12;98485.97;4950298;28;105943;-68
2021/10/21 07:13:09;;;;;;;14.55;11.40;;;;;;;13.03;68.16;98501.75;4950302;28;106190;-70
2021/10/21 07:15:35;;;;;;;15.70;11.65;;;;;;;13.04;68.16;98497.25;4950577;28;106102;-69
2021/10/21 07:18:01;;;;;;;16.17;13.63;;;;;;;13.06;67.87;98484.47;4957771;28;106239;-67
2021/10/21 07:20:27;;;;;;;17.60;12.70;;;;;;;13.09;68.29;98478.66;4966624;28;105939;-68
2021/10/21 07:22:52;;;;;;;14.95;12.75;;;;;;;13.09;67.88;98465.28;4969221;28;106652;-66
2021/10/21 07:25:18;;;;;;;16.48;12.23;;;;;;;13.12;67.70;98477.38;4966167;28;106020;-70
2021/10/21 07:27:44;;;;;;;14.55;12.43;;;;;;;13.12;67.77;98467.50;4954948;28;106046;-70
2021/10/21 07:30:10;;;;;;;18.00;11.93;;;;;;;13.14;68.04;98491.34;4950154;28;106273;-68
2021/10/21 07:32:37;;;;;;;19.52;12.70;;;;;;;13.13;68.08;98487.84;4949371;28;106201;-69
2021/10/21 07:35:03;;;;;;;15.38;11.55;;;;;;;13.13;67.58;98463.78;4948769;28;105907;-69
2021/10/21 07:37:28;;;;;;;13.07;9.82;;;;;;;13.15;68.13;98479.59;4949318;28;106120;-65
2021/10/21 07:39:53;;;;;;;15.55;12.13;;;;;;;13.14;67.80;98453.91;4950994;28;105999;-67
2021/10/21 07:42:19;;;;;;;16.55;12.15;;;;;;;13.15;68.09;98437.63;4949097;28;106224;-65
2021/10/21 07:44:45;;;;;;;14.30;10.90;;;;;;;13.17;68.05;98448.91;4949204;28;106616;-66
2021/10/21 07:47:11;;;;;;;15.75;11.75;;;;;;;13.21;67.74;98443.91;4948994;28;105896;-66
2021/10/21 07:49:36;;;;;;;17.75;11.85;;;;;;;13.24;67.74;98442.66;4949423;28;106548;-65
2021/10/21 07:52:03;;;;;;;13.65;10.50;;;;;;;13.25;67.62;98428.25;4949346;28;106089;-66
2021/10/21 07:54:32;;;;;;;13.65;10.68;;;;;;;13.28;67.99;98427.78;4948953;28;106032;-67
2021/10/21 07:57:02;;;;;;;19.15;12.85;;;;;;;13.30;68.05;98423.81;4948831;28;105899;-67
2021/10/21 07:59:28;;;;;;;16.95;10.75;;;;;;;13.34;67.92;98437.53;4949739;28;105992;-67
2021/10/21 08:01:58;;;;;;;18.75;12.07;;;;;;;13.38;67.91;98428.03;4949587;28;106255;-67
2021/10/21 08:04:24;;;;;;;17.10;11.07;;;;;;;13.42;67.58;98434.53;4949177;28;106164;-66
2021/10/21 08:06:49;;;;;;;15.32;12.07;;;;;;;13.46;67.72;98418.84;4952110;28;106376;-66
2021/10/21 08:09:16;;;;;;;16.25;10.50;;;;;;;13.50;67.65;98407.44;4968837;28;105915;-67
2021/10/21 08:11:42;;;;;;;15.63;12.82;;;;;;;13.54;67.60;98422.00;4969142;28;106199;-68
2021/10/21 08:14:09;;;;;;;13.13;10.55;;;;;;;13.60;67.69;98420.25;4967820;28;106077;-69
2021/10/21 08:16:35;;;;;;;15.98;11.60;;;;;;;13.64;67.70;98416.06;4968488;28;105941;-66
2021/10/21 08:19:00;;;;;;;13.63;9.85;;;;;;;13.69;67.56;98401.97;4969390;28;105990;-67
2021/10/21 08:21:27;;;;;;;14.93;10.63;;;;;;;13.71;67.87;98383.84;4969275;28;106242;-69
2021/10/21 08:23:55;;;;;;;15.88;10.50;;;;;;;13.74;67.55;98388.72;4968404;28;105937;-69
2021/10/21 08:26:22;;;;;;;15.30;11.38;;;;;;;13.79;67.66;98371.94;4967625;28;106045;-66
2021/10/21 08:28:48;;;;;;;13.88;8.63;;;;;;;13.84;67.66;98374.75;4969370;28;106442;-67
2021/10/21 08:31:17;;;;;;;13.20;7.82;;;;;;;13.91;67.45;98375.41;4968846;28;106531;-67
2021/10/21 08:33:46;;;;;;;12.35;7.30;;;;;;;13.99;67.38;98379.59;4968705;28;105993;-67
2021/10/21 08:36:14;;;;;;;12.88;8.00;;;;;;;14.04;67.54;98374.34;4966801;28;106042;-66
2021/10/21 08:38:41;;;;;;;12.23;7.43;;;;;;;14.10;67.06;98381.41;4969997;28;106246;-67
2021/10/21 08:41:08;;;;;;;9.88;7.13;;;;;;;14.17;67.19;98390.13;4960102;28;106258;-68
2021/10/21 08:43:35;;;;;;;9.73;7.13;;;;;;;14.22;67.22;98381.38;4958398;28;107727;-67
2021/10/21 08:46:01;;;;;;;10.23;8.63;;;;;;;14.27;67.15;98377.97;4952656;28;106563;-67
2021/10/21 08:48:28;;;;;;;12.70;9.32;;;;;;;14.31;67.16;98363.88;4949400;28;105889;-66
2021/10/21 08:50:56;;;;;;;10.75;9.27;;;;;;;14.34;66.84;98317.88;4959459;28;106496;-67
2021/10/21 08:53:22;;;;;;;12.65;8.55;;;;;;;14.39;66.87;98330.53;4962521;28;105870;-67
2021/10/21 08:55:50;;;;;;;15.60;9.02;;;;;;;14.45;66.63;98369.75;4962511;28;105918;-68
2021/10/21 08:58:16;;;;;;;8.93;6.78;;;;;;;14.57;66.54;98316.13;4969177;28;106092;-71
2021/10/21 09:00:41;;;;;;;13.20;9.05;;;;;;;14.71;66.45;98330.06;4968543;28;106296;-67
2021/10/21 09:03:14;;;;;;;11.57;8.93;;;;;;;14.86;65.98;98342.88;4968249;28;105907;-69
2021/10/21 09:06:04;;;;;;;10.48;7.82;;;;;;;15.02;65.70;98368.88;4968330;28;106060;-71
2021/10/21 09:08:25;;;;;;;11.18;8.98;;;;;;;15.18;65.24;98355.72;4967298;28;106194;-68
2021/10/21 09:10:53;;;;;;;11.07;8.30;;;;;;;15.26;65.13;98359.84;4968201;28;106361;-68
2021/10/21 09:13:30;;;;;;;8.45;6.40;;;;;;;15.33;64.67;98357.81;4967726;28;106065;-69
2021/10/21 09:15:59;;;;;;;8.50;6.43;;;;;;;15.43;64.26;98341.03;4967674;28;105804;-69
2021/10/21 09:18:26;;;;;;;8.52;7.43;;;;;;;15.53;64.47;98352.72;4968381;28;106212;-69
2021/10/21 09:20:52;;;;;;;7.40;4.75;;;;;;;15.63;63.68;98335.94;4968359;28;106057;-67
2021/10/21 09:23:24;;;;;;;5.88;5.13;;;;;;;15.81;63.53;98334.03;4950733;28;107200;-69
2021/10/21 09:25:50;;;;;;;7.28;4.53;;;;;;;15.98;62.22;98329.44;4947773;28;106559;-69
2021/10/21 09:28:27;;;;;;;7.55;4.45;;;;;;;16.16;61.67;98333.66;4949031;28;106011;-67
2021/10/21 09:31:12;;;;;;;6.50;4.55;;;;;;;16.29;60.92;98296.69;4951246;28;105987;-73
2021/10/21 09:33:50;;;;;;;5.15;3.35;;;;;;;16.37;60.46;98304.28;4950685;28;106377;-68
2021/10/21 09:36:21;;;;;;;8.18;3.90;;;;;;;16.40;59.71;98384.41;4957874;28;106098;-67
2021/10/21 09:38:54;;;;;;;6.05;4.50;;;;;;;16.39;59.50;98353.25;4957791;28;106001;-66
2021/10/21 09:41:22;;;;;;;5.30;3.28;;;;;;;16.39;58.91;98312.94;4957147;28;106240;-69
2021/10/21 09:43:50;;;;;;;5.88;3.67;;;;;;;16.39;58.88;98343.28;4958089;28;106255;-65
2021/10/21 09:46:30;;;;;;;7.78;3.72;;;;;;;16.44;59.24;98325.59;4950229;28;106072;-69
2021/10/21 09:49:19;;;;;;;5.22;3.50;;;;;;;16.47;58.79;98331.28;4948776;28;106050;-69
2021/10/21 09:51:45;;;;;;;4.50;3.33;;;;;;;16.51;58.72;98342.31;4948165;28;105800;-69
2021/10/21 09:54:11;;;;;;;6.00;4.20;;;;;;;16.52;59.14;98334.00;4947562;28;106002;-69
2021/10/21 09:57:04;;;;;;;8.15;4.18;;;;;;;16.61;58.59;98323.59;4948728;28;106590;-71
2021/10/21 09:59:34;;;;;;;5.80;3.65;;;;;;;16.81;58.63;98303.31;4952233;28;105906;-67
2021/10/21 10:02:15;;;;;;;3.97;2.73;;;;;;;17.98;56.66;98321.25;4951366;28;106335;-67
2021/10/21 10:04:51;;;;;;;4.30;2.83;;;;;;;20.42;55.89;98317.91;4959093;28;105977;-69
2021/10/21 10:07:23;;;;;;;3.05;1.95;;;;;;;23.49;43.98;98298.00;4964410;28;105968;-71
2021/10/21 10:09:48;;;;;;;3.83;2.08;;;;;;;24.32;40.19;98299.84;4970985;28;105938;-68
2021/10/21 10:12:18;;;;;;;2.28;1.65;;;;;;;23.65;40.18;98306.69;4970874;28;105776;-70
2021/10/21 10:14:45;;;;;;;4.67;1.90;;;;;;;25.76;36.67;98319.91;4970338;28;106040;-71
2021/10/21 10:17:11;;;;;;;4.07;1.80;;;;;;;26.97;33.83;98283.97;4970168;28;106335;-73
2021/10/21 10:19:49;;;;;;;9.10;2.03;;;;;;;28.06;30.72;98311.03;4971508;28;106976;-69
2021/10/21 10:22:20;;;;;;;3.28;1.20;;;;;;;26.68;29.66;98353.75;4970472;28;106208;-70
2021/10/21 10:24:46;;;;;;;5.20;2.80;;;;;;;26.95;31.23;98289.78;4965569;28;106555;-73
2021/10/21 10:27:22;;;;;;;6.20;1.90;;;;;;;29.11;28.99;98310.94;4964684;28;106002;-70
2021/10/21 10:29:47;;;;;;;2.72;1.60;;;;;;;30.24;26.25;98296.06;4970511;28;106398;-73
2021/10/21 10:32:43;;;;;;;6.40;1.75;;;;;;;30.16;24.87;98306.06;4963044;28;106152;-70
2021/10/21 10:35:14;;;;;;;9.25;1.80;;;;;;;31.08;23.10;98287.03;4956080;28;105932;-72
2021/10/21 10:37:54;;;;;;;12.75;1.60;;;;;;;32.19;21.30;98271.53;4953079;28;106193;-71
2021/10/21 10:40:54;;;;;;;4.43;1.50;;;;;;;33.40;20.41;98250.16;4967791;28;106215;-70
2021/10/21 10:43:37;;;;;;;5.45;1.42;;;;;;;33.56;19.87;98298.91;4958135;28;106292;-70
2021/10/21 10:46:03;;;;;;;2.78;1.00;;;;;;;32.93;19.10;98314.75;4950615;28;106006;-71
2021/10/21 10:48:48;;;;;;;2.63;1.17;;;;;;;31.44;20.14;98248.59;4950502;28;105997;-70
2021/10/21 10:51:13;;;;;;;5.78;1.10;;;;;;;30.52;20.98;98265.91;4951249;28;106460;-69
2021/10/21 10:53:43;;;;;;;4.18;1.17;;;;;;;29.61;21.34;98473.69;4950712;28;106018;-71
2021/10/21 10:56:08;;;;;;;;;;;;;;;29.80;20.77;98403.72;4950560;28;106017;-71
2021/10/21 10:58:34;;;;;;;5.37;0.97;;;;;;;29.56;21.06;98333.97;4950077;28;105972;-72
2021/10/21 11:00:59;;;;;;;7.43;0.98;;;;;;;29.56;20.54;98339.47;4951100;28;106036;-74
2021/10/21 11:03:33;;;;;;;4.88;0.90;;;;;;;30.21;20.08;98305.81;4949897;28;106192;-72
2021/10/21 11:06:06;;;;;;;9.32;0.93;;;;;;;30.65;19.55;98310.63;4949899;28;105973;-73
2021/10/21 11:08:50;;;;;;;5.82;0.68;;;;;;;31.08;18.81;98331.03;4949182;28;106516;-73
2021/10/21 11:12:01;;;;;;;5.57;1.55;;;;;;;30.62;18.07;98273.66;4950147;28;106459;-69
2021/10/21 11:14:37;;;;;;;5.65;0.60;;;;;;;29.25;19.49;98309.84;4955098;28;106218;-68
2021/10/21 11:17:03;;;;;;;3.50;0.80;;;;;;;29.13;19.83;98296.88;4950062;28;105908;-71
2021/10/21 11:19:40;;;;;;;4.45;0.55;;;;;;;30.62;18.35;98333.28;4949416;28;106131;-71
2021/10/21 11:22:05;;;;;;;6.43;0.98;;;;;;;30.75;18.05;98314.81;4950492;28;106261;-69
2021/10/21 11:24:47;;;;;;;6.88;0.60;;;;;;;30.27;17.74;98366.78;4953521;28;106062;-67
2021/10/21 11:27:17;;;;;;;3.53;0.57;;;;;;;27.89;20.00;98334.63;4958914;28;106836;-67
2021/10/21 11:29:51;;;;;;;6.40;0.75;;;;;;;25.82;22.07;98348.66;4969278;28;106140;-66
2021/10/21 11:32:17;;;;;;;5.43;0.70;;;;;;;24.15;24.54;98340.47;4964360;28;106042;-73
2021/10/21 11:34:48;;;;;;;2.45;1.00;;;;;;;23.13;25.78;98346.78;4952685;28;106287;-69
2021/10/21 11:37:13;;;;;;;4.38;0.60;;;;;;;22.27;27.44;98367.56;4949510;28;106127;-69
2021/10/21 11:39:39;;;;;;;3.92;0.47;;;;;;;21.44;28.60;98350.63;4949854;28;106148;-70
2021/10/21 11:42:07;;;;;;;6.53;1.30;;;;;;;20.92;29.81;98372.75;4950437;28;105811;-66
2021/10/21 11:44:33;;;;;;;3.22;0.63;;;;;;;20.38;30.26;98341.19;4949830;28;106473;-66
2021/10/21 11:47:00;;;;;;;3.10;0.73;;;;;;;19.89;31.07;98373.34;4949427;28;106104;-68
2021/10/21 11:49:38;;;;;;;6.82;0.70;;;;;;;19.52;31.80;98341.25;4949557;28;106557;-70
2021/10/21 11:52:09;;;;;;;8.55;0.98;;;;;;;19.40;32.39;98339.69;4950543;28;106004;-69
2021/10/21 11:54:36;;;;;;;4.72;0.52;;;;;;;19.37;32.72;98339.41;4949231;28;106122;-66
2021/10/21 11:57:02;;;;;;;5.30;0.93;;;;;;;19.28;32.69;98315.66;4949718;28;106068;-70
2021/10/21 11:59:42;;;;;;;10.82;1.05;;;;;;;19.27;32.81;98335.66;4957883;28;106471;-68
2021/10/21 12:02:18;;;;;;;5.30;0.80;;;;;;;19.69;32.42;98335.56;4959134;28;106094;-69
2021/10/21 12:04:45;;;;;;;4.70;1.00;;;;;;;20.62;31.18;98352.94;4964624;28;106250;-68
2021/10/21 12:07:11;;;;;;;2.53;0.52;;;;;;;24.11;26.95;98323.16;4968622;28;106144;-67
2021/10/21 12:09:38;;;;;;;3.65;0.95;;;;;;;26.88;22.99;98340.59;4968232;28;105949;-68
2021/10/21 12:12:12;;;;;;;0.45;0.30;;;;;;;28.52;21.23;98284.59;4969231;28;105886;-69
2021/10/21 12:14:42;;;;;;;3.22;0.47;;;;;;;29.59;19.58;98302.31;4968709;28;106111;-71
2021/10/21 12:17:08;;;;;;;7.80;0.65;;;;;;;30.24;19.06;98353.72;4968332;28;106277;-67
2021/10/21 12:19:34;;;;;;;5.97;0.47;;;;;;;30.81;18.48;98344.44;4968005;28;106336;-69
2021/10/21 12:22:18;;;;;;;3.65;0.50;;;;;;;31.55;17.83;98352.28;4969306;28;106096;-65
2021/10/21 12:24:45;;;;;;;5.18;0.40;;;;;;;30.67;18.20;98333.84;4969165;28;106307;-67
2021/10/21 12:27:21;;;;;;;3.05;0.40;;;;;;;30.97;17.57;98391.19;4968897;28;105886;-68
2021/10/21 12:29:47;;;;;;;6.50;0.57;;;;;;;30.60;17.51;98358.38;4968680;28;105924;-69
2021/10/21 12:32:19;;;;;;;4.22;0.65;;;;;;;30.63;17.60;98349.41;4957386;28;105912;-68
2021/10/21 12:34:47;;;;;;;7.40;0.60;;;;;;;30.72;17.69;98300.59;4968894;28;106283;-65
2021/10/21 12:37:24;;;;;;;3.03;0.40;;;;;;;28.53;19.34;98338.25;4968074;28;106854;-65
2021/10/21 12:39:50;;;;;;;4.88;0.40;;;;;;;29.23;19.01;98384.19;4968021;28;105993;-65
2021/10/21 12:42:23;;;;;;;3.28;0.30;;;;;;;30.24;18.46;98393.00;4968699;28;106117;-66
2021/10/21 12:44:59;;;;;;;6.45;0.50;;;;;;;30.94;17.64;98375.41;4968012;28;106127;-66
2021/10/21 12:47:30;;;;;;;1.15;0.20;;;;;;;30.28;17.78;98355.47;4967572;28;105976;-69
2021/10/21 12:50:00;;;;;;;2.58;0.35;;;;;;;30.61;17.67;98405.91;4967981;28;106045;-68
2021/10/21 12:52:34;;;;;;;2.95;0.43;;;;;;;30.77;17.70;98348.22;4969411;28;105994;-66
2021/10/21 12:55:12;;;;;;;8.57;0.47;;;;;;;29.83;18.03;98405.81;4968182;28;105902;-67
2021/10/21 12:57:43;;;;;;;1.55;0.28;;;;;;;28.33;19.98;98391.84;4967611;28;105920;-68
2021/10/21 13:00:11;;;;;;;5.65;0.55;;;;;;;27.18;20.69;98439.88;4966702;28;106446;-67
2021/10/21 13:02:36;;;;;;;8.18;0.93;;;;;;;26.40;21.34;98443.34;4968640;28;106110;-68
2021/10/21 13:05:03;;;;;;;3.58;0.38;;;;;;;26.74;22.14;98450.03;4967697;28;105939;-69
2021/10/21 13:07:28;;;;;;;3.00;0.20;;;;;;;27.86;20.37;98459.19;4967440;28;106050;-70
2021/10/21 13:09:54;;;;;;;4.78;0.30;;;;;;;27.70;20.42;98472.59;4967136;28;106194;-70
2021/10/21 13:12:21;;;;;;;1.77;0.40;;;;;;;27.29;20.96;98470.41;4959196;28;106084;-69
2021/10/21 13:14:50;;;;;;;3.22;0.20;;;;;;;26.41;22.03;98530.41;4966549;28;106041;-69
2021/10/21 13:17:17;;;;;;;3.30;0.23;;;;;;;23.43;25.52;98527.47;4965808;28;106587;-68
2021/10/21 13:19:42;;;;;;;4.63;0.50;;;;;;;21.78;28.03;98526.72;4967677;28;106046;-68
2021/10/21 13:22:07;;;;;;;1.83;0.40;;;;;;;20.96;29.59;98532.72;4957177;28;106152;-68
2021/10/21 13:24:34;;;;;;;5.38;0.38;;;;;;;20.08;31.71;98549.22;4967944;28;105971;-68
2021/10/21 13:27:01;;;;;;;2.50;0.50;;;;;;;19.06;34.05;98582.34;4967744;28;105947;-69
2021/10/21 13:29:27;;;;;;;3.63;0.45;;;;;;;18.75;35.43;98625.34;4967660;28;106169;-67
2021/10/21 13:31:53;;;;;;;4.60;0.50;;;;;;;19.87;34.20;98637.59;4969366;28;106049;-69
2021/10/21 13:34:19;;;;;;;5.68;0.30;;;;;;;22.44;30.87;98653.84;4961421;28;106275;-67
2021/10/21 13:36:45;;;;;;;2.38;0.25;;;;;;;24.08;28.55;98636.56;4974452;28;106145;-66
2021/10/21 13:39:10;;;;;;;2.15;0.20;;;;;;;24.78;27.33;98624.72;4975711;28;105973;-66
2021/10/21 13:41:37;;;;;;;7.40;1.35;;;;;;;26.06;25.80;98654.94;4962173;28;106214;-66
2021/10/21 13:44:03;;;;;;;1.25;0.05;;;;;;;24.97;26.49;98676.38;4985543;28;106608;-67
2021/10/21 13:46:29;;;;;;;1.95;0.35;;;;;;;25.66;25.55;98680.91;4973536;28;107475;-68
2021/10/21 13:48:54;;;;;;;0.75;0.20;;;;;;;26.04;24.97;98671.63;4982238;28;105959;-68
2021/10/21 13:51:20;;;;;;;1.15;0.20;;;;;;;26.58;24.00;98690.72;4982525;28;105980;-68
2021/10/21 13:53:45;;;;;;;7.13;0.20;;;;;;;26.37;24.63;98687.75;4974412;28;106244;-68
2021/10/21 13:56:13;;;;;;;2.42;0.47;;;;;;;26.99;23.47;98697.06;4987176;28;105843;-68
2021/10/21 13:58:39;;;;;;;1.27;0.10;;;;;;;26.91;23.36;98719.69;4975924;28;106180;-68
2021/10/21 14:01:05;;;;;;;0.10;0.10;;;;;;;26.42;23.30;98645.84;4982201;28;106215;-68
2021/10/21 14:03:30;;;;;;;1.10;0.08;;;;;;;25.90;24.06;98690.72;4983284;28;106158;-68
2021/10/21 14:05:56;;;;;;;0.55;0.32;;;;;;;25.07;25.10;98712.66;4973972;28;106077;-68
2021/10/21 14:08:21;;;;;;;4.45;0.40;;;;;;;25.59;24.80;98756.88;4987064;28;106319;-67
2021/10/21 14:10:47;;;;;;;3.05;0.30;;;;;;;25.06;24.85;98754.66;4971035;28;106163;-68
2021/10/21 14:13:13;;;;;;;3.65;0.30;;;;;;;24.90;25.08;98745.94;4979578;28;106287;-67
2021/10/21 14:15:38;;;;;;;2.03;0.10;;;;;;;25.02;24.68;98759.09;4969969;28;106508;-67
2021/10/21 14:18:05;;;;;;;9.90;7.72;;;;;;;25.29;25.14;98750.91;4986691;28;106085;-66
2021/10/21 14:20:30;;;;;;;6.00;2.97;;;;;;;25.35;24.71;98773.44;4974626;28;105964;-68
2021/10/21 14:22:56;;;;;;;2.95;0.40;;;;;;;25.54;24.81;98786.97;4982540;28;105848;-70
2021/10/21 14:25:21;;;;;;;2.03;0.60;;;;;;;25.28;24.71;98760.19;4981316;28;106323;-67
2021/10/21 14:27:47;;;;;;;6.03;0.30;;;;;;;23.90;25.39;98769.56;4974683;28;106207;-67
2021/10/21 14:30:13;;;;;;;0.45;0.17;;;;;;;21.75;28.94;98754.16;4986958;28;105961;-67
2021/10/21 14:32:39;;;;;;;1.85;0.20;;;;;;;22.40;28.56;98794.69;4975804;28;106029;-67
2021/10/21 14:35:07;;;;;;;1.77;0.25;;;;;;;20.76;29.73;98769.03;4980231;28;106099;-68
2021/10/21 14:37:37;;;;;;;2.17;0.40;;;;;;;20.35;31.40;98790.63;4982701;28;106336;-67
2021/10/21 14:40:05;;;;;;;3.40;0.50;;;;;;;21.29;30.08;98755.91;4973526;28;105867;-66
2021/10/21 14:42:30;;;;;;;2.90;0.40;;;;;;;21.76;29.26;98790.97;4974088;28;106099;-66
2021/10/21 14:44:55;;;;;;;2.83;0.28;;;;;;;21.76;28.99;98772.00;4977592;28;106004;-66
2021/10/21 14:47:21;;;;;;;3.72;0.30;;;;;;;20.03;30.61;98781.66;4978007;28;106668;-67
2021/10/21 14:49:46;;;;;;;0.88;0.30;;;;;;;18.33;33.62;98786.06;4975769;28;106325;-67
2021/10/21 14:52:11;;;;;;;3.08;0.50;;;;;;;17.22;35.11;98786.13;4985783;28;106149;-69
2021/10/21 14:54:37;;;;;;;2.65;0.35;;;;;;;16.56;36.28;98789.38;4974991;28;106062;-68
2021/10/21 14:57:02;;;;;;;3.05;0.43;;;;;;;17.52;36.17;98782.22;4980644;28;106166;-67
2021/10/21 14:59:28;;;;;;;3.17;1.55;;;;;;;17.86;35.30;98795.50;4963818;28;106125;-67
2021/10/21 15:01:53;;;;;;;1.50;0.73;;;;;;;18.05;35.28;98790.63;4963523;28;106248;-67
2021/10/21 15:04:23;;;;;;;1.33;0.80;;;;;;;19.31;34.26;98799.47;4965248;28;106246;-65
2021/10/21 15:15:33;;;;;;;3.90;0.70;;;;;;;19.87;32.33;98815.94;4959427;28;106038;-65
2021/10/21 15:23:25;;;;;;;4.68;0.60;;;;;;;17.77;34.55;98832.06;4961105;28;106330;-64
2021/10/21 15:25:52;;;;;;;2.90;0.55;;;;;;;16.62;36.72;98840.56;4967242;28;106008;-63
2021/10/21 15:28:17;;;;;;;1.13;0.38;;;;;;;15.86;38.28;98845.09;4984009;28;106205;-64
2021/10/21 15:30:43;;;;;;;2.58;0.60;;;;;;;15.28;40.08;98868.25;4974036;28;105937;-63
2021/10/21 15:33:08;;;;;;;4.55;1.00;;;;;;;14.87;41.46;98868.09;4987999;28;106195;-64
2021/10/21 15:35:34;;;;;;;4.65;1.70;;;;;;;14.67;41.83;98875.66;4987911;28;106578;-64
2021/10/21 15:38:01;;;;;;;4.25;2.08;;;;;;;14.30;42.27;98873.06;4985302;28;108143;-67
2021/10/21 15:40:27;;;;;;;4.45;1.25;;;;;;;14.06;43.05;98872.91;4968708;28;106605;-63
2021/10/21 15:42:52;;;;;;;3.17;0.80;;;;;;;13.86;43.55;98882.03;4968095;28;106508;-64
2021/10/21 16:10:10;;;;;;;4.22;0.65;;;;;;;12.63;48.16;98960.97;4947533;28;106149;-64
2021/10/21 16:12:35;;;;;;;2.22;0.90;;;;;;;12.49;48.04;98955.72;4958287;28;106000;-66
2021/10/21 16:15:05;;;;;;;3.70;1.27;;;;;;;12.36;47.72;98948.56;4947616;28;106236;-63
2021/10/21 16:17:37;;;;;;;2.13;0.80;;;;;;;12.31;48.18;98961.75;4949111;28;106116;-66
2021/10/21 16:20:07;;;;;;;2.75;0.50;;;;;;;12.32;48.12;98950.03;4948868;28;106697;-65
2021/10/21 16:22:44;;;;;;;;;;;;;;;12.32;47.78;98954.56;4950325;28;106280;-64
2021/10/21 16:27:46;;;;;;;1.10;0.75;;;;;;;12.26;47.17;98974.94;4947345;28;106557;-63
2021/10/21 16:30:12;;;;;;;1.83;0.68;;;;;;;12.23;47.57;98966.50;4946605;28;105997;-65
2021/10/21 16:32:37;;;;;;;3.22;0.95;;;;;;;12.23;47.50;98939.81;4947390;28;106002;-68
2021/10/21 16:35:05;;;;;;;1.45;0.68;;;;;;;12.18;47.29;98965.28;4946901;28;106377;-62
2021/10/21 16:37:30;;;;;;;3.30;0.50;;;;;;;12.16;47.46;98974.53;4946462;28;107313;-65
2021/10/21 16:39:56;;;;;;;2.78;0.73;;;;;;;12.11;47.15;98971.66;4947270;28;106848;-66
2021/10/21 16:42:21;;;;;;;3.55;1.00;;;;;;;12.05;46.97;98973.34;4949089;28;106010;-68
2021/10/21 16:44:49;;;;;;;3.75;0.90;;;;;;;12.01;46.77;98978.28;4948784;28;106334;-67
2021/10/21 16:47:14;;;;;;;3.33;0.60;;;;;;;11.94;46.87;98979.28;4948574;28;105766;-65
2021/10/21 16:49:40;;;;;;;4.38;0.80;;;;;;;11.88;47.33;98982.78;4948816;28;106492;-67
2021/10/21 16:52:10;;;;;;;3.90;1.20;;;;;;;11.84;47.14;98974.38;4951786;28;105847;-66
2021/10/21 16:54:39;;;;;;;;;;;;;;;11.78;47.42;98970.72;4958825;28;106084;-66
2021/10/21 16:57:05;;;;;;;2.15;0.80;;;;;;;11.78;47.44;98969.88;4956605;28;106678;-70
2021/10/21 16:59:32;;;;;;;6.35;1.15;;;;;;;11.72;47.91;98971.53;4953552;28;106004;-65
2021/10/21 17:01:59;;;;;;;2.67;1.15;;;;;;;11.69;47.54;98972.75;4958680;28;105874;-66
2021/10/21 17:04:24;;;;;;;2.22;0.93;;;;;;;11.66;47.91;98967.03;4956511;28;106012;-69
2021/10/21 17:06:49;;;;;;;1.65;0.73;;;;;;;11.64;48.23;98969.06;4956569;28;105956;-67
2021/10/21 17:09:15;;;;;;;1.30;0.60;;;;;;;11.60;48.02;98962.50;4957055;28;106346;-68
2021/10/21 17:11:41;;;;;;;5.60;0.90;;;;;;;11.58;48.44;98975.25;4956387;28;105977;-68
2021/10/21 17:14:07;;;;;;;0.73;0.47;;;;;;;11.55;48.81;98967.66;4956730;28;106205;-66
2021/10/21 17:16:36;;;;;;;2.13;1.25;;;;;;;11.49;48.37;98967.44;4957203;28;105936;-67
2021/10/21 17:19:02;;;;;;;1.60;0.80;;;;;;;11.47;49.09;98966.84;4955893;28;105875;-66